Time;durP1;ratioP1;P1;durP2;ratioP2;P2;SDS_P1;SDS_P2;PMS_P1;PMS_P2;Temp;Humidity;BMP_temperature;BMP_pressure;BME280_temperature;BME280_humidity;BME280_pressure;Samples;Min_cycle;Max_cycle;Signal;HPM_P1;HPM_P2
2023/01/06 00:02:39;;;;;;;16.75;10.38;;;9.10;99.90;;;;;;5052323;28;20025;-49
2023/01/06 00:05:25;;;;;;;15.02;11.48;;;9.00;99.90;;;;;;5051238;28;20032;-52
2023/01/06 00:08:11;;;;;;;13.25;10.75;;;9.00;99.90;;;;;;5050822;28;20032;-49
2023/01/06 00:10:57;;;;;;;15.40;11.50;;;9.00;99.90;;;;;;5050953;28;20029;-48
2023/01/06 00:13:43;;;;;;;15.88;11.93;;;8.90;99.90;;;;;;5051016;28;20037;-49
2023/01/06 00:16:29;;;;;;;16.52;11.30;;;9.00;99.90;;;;;;5052383;28;20032;-53
2023/01/06 00:19:15;;;;;;;13.10;10.98;;;8.90;99.90;;;;;;5050492;28;20033;-52
2023/01/06 00:22:01;;;;;;;17.30;11.80;;;9.00;99.90;;;;;;5050103;28;20040;-51
2023/01/06 00:24:47;;;;;;;18.92;12.05;;;9.00;99.90;;;;;;5050289;28;20088;-52
2023/01/06 00:27:32;;;;;;;19.35;12.27;;;9.00;99.90;;;;;;5050116;28;20104;-53
2023/01/06 00:30:18;;;;;;;17.17;11.27;;;8.90;99.90;;;;;;5050326;28;20017;-50
2023/01/06 00:33:04;;;;;;;15.73;11.23;;;8.90;99.90;;;;;;5050155;28;20025;-51
2023/01/06 00:35:50;;;;;;;18.95;12.23;;;8.90;99.90;;;;;;5051019;28;20511;-50
2023/01/06 00:38:38;;;;;;;17.13;12.10;;;8.90;99.90;;;;;;5051163;28;20516;-48
2023/01/06 00:44:38;;;;;;;17.65;13.32;;;8.90;99.90;;;;;;5049824;28;20053;-51
2023/01/06 00:47:24;;;;;;;20.42;12.50;;;8.90;99.90;;;;;;5051283;28;20100;-48
2023/01/06 00:50:10;;;;;;;16.02;11.43;;;8.90;99.90;;;;;;5051244;28;20060;-45
2023/01/06 00:52:56;;;;;;;17.58;11.63;;;9.00;99.90;;;;;;5050015;28;20512;-46
2023/01/06 00:55:42;;;;;;;17.60;11.45;;;8.90;99.90;;;;;;5050474;28;20032;-48
2023/01/06 00:58:29;;;;;;;16.80;10.85;;;9.00;99.90;;;;;;5050507;28;20515;-47
2023/01/06 01:01:15;;;;;;;18.40;11.57;;;9.00;99.90;;;;;;5051842;28;20059;-47
2023/01/06 01:04:02;;;;;;;19.95;11.93;;;9.00;99.90;;;;;;5050453;28;20516;-47
2023/01/06 01:06:49;;;;;;;21.65;11.73;;;9.00;99.90;;;;;;5050131;28;20033;-51
2023/01/06 01:09:35;;;;;;;21.50;11.75;;;9.10;99.90;;;;;;5050852;28;20017;-46
2023/01/06 01:12:21;;;;;;;17.60;10.00;;;9.10;99.90;;;;;;5049960;28;20029;-46
2023/01/06 01:15:07;;;;;;;23.95;12.48;;;9.10;99.90;;;;;;5049480;28;20025;-45
2023/01/06 01:17:53;;;;;;;16.45;10.93;;;9.10;99.90;;;;;;5050653;28;20051;-46
2023/01/06 01:20:39;;;;;;;21.33;12.07;;;9.10;99.90;;;;;;5049754;28;20025;-46
2023/01/06 01:23:25;;;;;;;20.23;11.23;;;9.10;99.90;;;;;;5050383;28;20116;-48
2023/01/06 01:26:11;;;;;;;19.50;9.98;;;9.10;99.90;;;;;;5050027;28;20017;-48
2023/01/06 01:28:57;;;;;;;19.55;11.52;;;9.10;99.90;;;;;;5049950;28;20067;-46
2023/01/06 01:31:44;;;;;;;21.52;10.75;;;9.10;99.90;;;;;;5049598;28;20132;-47
2023/01/06 01:34:31;;;;;;;20.38;10.05;;;9.10;99.90;;;;;;5050630;28;20068;-51
2023/01/06 01:37:17;;;;;;;19.70;11.80;;;9.10;99.90;;;;;;5050213;28;20033;-50
2023/01/06 01:40:04;;;;;;;19.55;10.85;;;9.10;99.90;;;;;;5050087;28;20048;-52
2023/01/06 01:42:49;;;;;;;21.55;12.02;;;9.10;99.90;;;;;;5049920;28;20040;-46
2023/01/06 01:45:35;;;;;;;21.20;13.40;;;9.10;99.90;;;;;;5049725;28;20022;-47
2023/01/06 01:48:32;;;;;;;27.23;13.82;;;9.10;99.90;;;;;;5049394;28;20036;-47
2023/01/06 01:51:23;;;;;;;31.10;14.93;;;9.20;99.90;;;;;;5050537;28;20049;-46
2023/01/06 01:54:27;;;;;;;24.35;16.30;;;9.10;99.90;;;;;;5049458;28;20032;-52
2023/01/06 01:57:24;;;;;;;30.58;17.13;;;9.10;99.90;;;;;;5053856;28;20032;-47
2023/01/06 02:00:10;;;;;;;27.80;16.23;;;9.10;99.90;;;;;;5053993;28;20051;-49
2023/01/06 02:02:56;;;;;;;28.90;16.60;;;9.10;99.90;;;;;;5053951;28;20036;-47
2023/01/06 02:05:49;;;;;;;28.15;16.00;;;9.10;99.90;;;;;;5055238;28;20040;-45
2023/01/06 02:08:43;;;;;;;27.83;14.90;;;9.00;99.90;;;;;;5052796;28;20022;-45
2023/01/06 02:11:32;;;;;;;31.38;15.25;;;9.00;99.90;;;;;;5055041;28;20060;-45
2023/01/06 02:14:23;;;;;;;26.25;13.60;;;9.10;99.90;;;;;;5055409;28;20147;-50
2023/01/06 02:17:29;;;;;;;22.05;13.20;;;9.00;99.90;;;;;;5053656;28;20489;-46
2023/01/06 02:20:33;;;;;;;25.33;12.20;;;9.00;99.90;;;;;;5052230;28;20029;-48
2023/01/06 02:23:54;;;;;;;19.88;11.52;;;9.00;99.90;;;;;;5053714;28;20528;-49
2023/01/06 02:27:18;;;;;;;23.92;11.75;;;8.90;99.90;;;;;;5052946;28;20456;-50
2023/01/06 02:30:31;;;;;;;24.23;12.27;;;8.90;99.90;;;;;;5054429;28;20029;-46
2023/01/06 02:33:44;;;;;;;19.27;11.98;;;9.10;99.90;;;;;;5053401;28;20033;-48
2023/01/06 02:37:04;;;;;;;19.48;10.95;;;9.00;99.90;;;;;;5054217;28;20060;-53
2023/01/06 02:40:29;;;;;;;21.23;10.73;;;9.00;99.90;;;;;;5053404;28;20075;-46
2023/01/06 02:43:50;;;;;;;19.08;11.40;;;9.00;99.90;;;;;;5053746;28;20032;-46
2023/01/06 02:46:55;;;;;;;18.65;10.35;;;9.00;99.90;;;;;;5039339;28;20037;-44
2023/01/06 02:50:38;;;;;;;17.05;9.60;;;9.10;99.90;;;;;;5054556;28;20108;-46
2023/01/06 02:53:40;;;;;;;21.15;10.10;;;9.10;99.90;;;;;;4991981;28;20085;-45
2023/01/06 02:56:31;;;;;;;17.92;9.65;;;9.20;99.90;;;;;;4992018;28;20038;-45
2023/01/06 02:59:23;;;;;;;17.10;9.40;;;9.20;99.90;;;;;;5052575;28;20110;-46
2023/01/06 03:02:10;;;;;;;24.35;10.68;;;9.20;99.90;;;;;;5053505;28;20048;-51
2023/01/06 03:04:59;;;;;;;21.65;10.27;;;9.20;99.90;;;;;;5051891;28;20440;-48
2023/01/06 03:07:46;;;;;;;21.38;9.90;;;9.20;99.90;;;;;;5052781;28;20029;-46
2023/01/06 03:10:33;;;;;;;20.98;9.00;;;9.20;99.90;;;;;;5052302;28;20504;-46
2023/01/06 03:14:07;;;;;;;21.60;9.63;;;9.20;99.90;;;;;;5053566;28;20546;-46
2023/01/06 03:16:54;;;;;;;21.75;11.48;;;9.10;99.90;;;;;;5048276;28;20025;-45
2023/01/06 03:19:41;;;;;;;19.95;10.40;;;9.10;99.90;;;;;;5052482;28;20062;-50
2023/01/06 03:22:27;;;;;;;13.80;8.95;;;9.20;99.90;;;;;;5053855;28;20063;-45
2023/01/06 03:25:14;;;;;;;21.95;9.25;;;9.10;99.90;;;;;;5053292;28;20112;-46
2023/01/06 03:28:00;;;;;;;15.13;8.75;;;9.10;99.90;;;;;;5052169;28;20108;-52
2023/01/06 03:31:03;;;;;;;16.42;8.90;;;9.10;99.90;;;;;;5051415;28;20101;-46
2023/01/06 03:34:15;;;;;;;27.15;9.45;;;9.10;99.90;;;;;;5053110;28;20485;-48
2023/01/06 03:37:25;;;;;;;18.30;9.20;;;9.10;99.90;;;;;;5051615;28;20025;-50
2023/01/06 03:40:18;;;;;;;17.42;8.60;;;9.00;99.90;;;;;;5051632;28;20029;-45
2023/01/06 03:43:33;;;;;;;16.60;9.48;;;9.00;99.90;;;;;;5051727;28;20031;-51
2023/01/06 03:46:28;;;;;;;16.20;8.63;;;9.10;99.90;;;;;;5052467;28;20113;-51
2023/01/06 03:49:29;;;;;;;15.43;8.95;;;9.10;99.90;;;;;;5051384;28;20040;-52
2023/01/06 03:52:27;;;;;;;16.60;8.40;;;9.20;99.90;;;;;;5052630;28;20025;-50
2023/01/06 03:55:19;;;;;;;17.25;8.48;;;9.10;99.90;;;;;;5051424;28;20063;-47
2023/01/06 03:58:08;;;;;;;16.92;8.00;;;9.20;99.90;;;;;;5051501;28;20409;-48
2023/01/06 04:00:55;;;;;;;19.23;8.07;;;9.10;99.90;;;;;;5051436;28;20029;-48
2023/01/06 04:03:45;;;;;;;17.50;8.40;;;9.20;99.90;;;;;;5052327;28;20075;-52
2023/01/06 04:06:31;;;;;;;16.85;6.93;;;9.20;99.90;;;;;;5050822;28;20115;-46
2023/01/06 04:09:16;;;;;;;14.50;7.47;;;9.20;99.90;;;;;;5050683;28;20088;-46
2023/01/06 04:15:10;;;;;;;16.80;6.97;;;9.20;99.90;;;;;;5052228;28;20029;-52
2023/01/06 04:17:56;;;;;;;12.95;6.28;;;9.10;99.90;;;;;;5050824;28;20154;-45
2023/01/06 04:20:42;;;;;;;15.57;6.40;;;9.00;99.90;;;;;;5051165;28;20029;-47
2023/01/06 04:23:31;;;;;;;12.30;5.97;;;9.00;99.90;;;;;;5051050;28;20033;-46
2023/01/06 04:26:17;;;;;;;13.00;6.82;;;9.00;99.90;;;;;;5052353;28;20112;-46
2023/01/06 04:29:03;;;;;;;15.80;7.10;;;9.10;99.90;;;;;;5050306;28;20025;-46
2023/01/06 04:31:49;;;;;;;10.85;7.20;;;9.10;99.90;;;;;;5052160;28;20485;-45
2023/01/06 04:34:35;;;;;;;11.77;5.82;;;9.00;99.90;;;;;;5050352;28;20021;-46
2023/01/06 04:37:21;;;;;;;13.48;7.40;;;9.00;99.90;;;;;;5050161;28;20481;-45
2023/01/06 04:40:08;;;;;;;10.05;5.35;;;9.00;99.90;;;;;;5051899;28;20033;-45
2023/01/06 04:43:03;;;;;;;13.10;6.28;;;9.00;99.90;;;;;;5052381;28;20031;-49
2023/01/06 04:45:49;;;;;;;15.30;6.35;;;9.10;99.90;;;;;;5050580;28;20025;-46
2023/01/06 04:48:35;;;;;;;12.20;5.22;;;9.10;99.90;;;;;;5051992;28;20029;-48
2023/01/06 04:51:21;;;;;;;10.18;5.25;;;9.10;99.90;;;;;;5053259;28;20029;-47
2023/01/06 04:54:07;;;;;;;9.40;5.35;;;9.10;99.90;;;;;;5050715;28;20045;-46
2023/01/06 04:56:53;;;;;;;7.30;4.43;;;9.10;99.90;;;;;;5050920;28;20037;-48
2023/01/06 04:59:39;;;;;;;8.90;4.85;;;9.20;99.90;;;;;;5050734;28;20056;-48
2023/01/06 05:02:25;;;;;;;10.48;5.28;;;9.20;99.90;;;;;;5050433;28;20059;-49
2023/01/06 05:05:11;;;;;;;6.90;4.40;;;9.20;99.90;;;;;;5050159;28;20029;-49
2023/01/06 05:07:57;;;;;;;9.10;4.25;;;9.20;99.90;;;;;;5050457;28;20025;-47
2023/01/06 05:10:43;;;;;;;8.35;4.25;;;9.20;99.90;;;;;;5051022;28;20032;-51
2023/01/06 05:13:30;;;;;;;7.93;4.40;;;9.10;99.90;;;;;;5051773;28;20029;-55
2023/01/06 05:16:17;;;;;;;11.13;4.80;;;9.20;99.90;;;;;;5050018;28;20024;-49
2023/01/06 05:19:03;;;;;;;8.23;4.78;;;9.20;99.90;;;;;;5049863;28;20116;-47
2023/01/06 05:21:49;;;;;;;6.80;4.32;;;9.30;99.90;;;;;;5050069;28;20025;-50
2023/01/06 05:24:35;;;;;;;10.55;4.72;;;9.20;99.90;;;;;;5050044;28;20071;-51
2023/01/06 05:27:21;;;;;;;8.55;4.50;;;9.10;99.90;;;;;;5049689;28;20029;-51
2023/01/06 05:30:07;;;;;;;8.20;4.43;;;9.10;99.90;;;;;;5052774;28;20425;-45
2023/01/06 05:32:53;;;;;;;6.85;4.47;;;9.10;99.90;;;;;;5055092;28;20129;-51
2023/01/06 05:35:39;;;;;;;6.70;3.80;;;9.10;99.90;;;;;;5054094;28;20080;-46
2023/01/06 05:38:25;;;;;;;7.53;4.03;;;9.10;99.90;;;;;;5055467;28;20021;-51
2023/01/06 05:41:11;;;;;;;9.23;4.03;;;9.10;99.90;;;;;;5055737;28;20017;-50
2023/01/06 05:43:57;;;;;;;7.53;4.35;;;9.20;99.90;;;;;;5053774;28;20517;-50
2023/01/06 05:46:43;;;;;;;8.90;4.32;;;9.20;99.90;;;;;;5053214;28;20029;-45
2023/01/06 05:49:29;;;;;;;8.73;4.47;;;9.30;99.90;;;;;;5053174;28;20178;-55
2023/01/06 05:52:15;;;;;;;6.13;4.18;;;9.20;99.90;;;;;;5053201;28;20022;-50
2023/01/06 05:55:01;;;;;;;6.70;3.63;;;9.20;99.90;;;;;;5053632;28;20397;-52
2023/01/06 05:57:47;;;;;;;6.80;3.88;;;9.20;99.90;;;;;;5053298;28;20037;-49
2023/01/06 06:00:33;;;;;;;6.00;3.55;;;9.20;99.90;;;;;;5053285;28;20044;-48
2023/01/06 06:03:19;;;;;;;7.30;4.20;;;9.20;99.90;;;;;;5039520;28;20060;-50
2023/01/06 06:06:05;;;;;;;5.22;3.75;;;9.20;99.90;;;;;;5054335;28;20029;-49
2023/01/06 06:08:51;;;;;;;5.72;3.75;;;9.20;99.90;;;;;;5052992;28;20409;-48
2023/01/06 06:11:37;;;;;;;8.60;4.10;;;9.20;99.90;;;;;;5053476;28;20062;-52
2023/01/06 06:14:25;;;;;;;7.80;4.22;;;9.20;99.90;;;;;;5053583;28;20025;-47
2023/01/06 06:17:11;;;;;;;5.88;4.13;;;9.30;99.90;;;;;;5054435;28;20017;-51
2023/01/06 06:19:57;;;;;;;5.75;4.03;;;9.20;99.90;;;;;;5053425;28;20108;-54
2023/01/06 06:22:43;;;;;;;6.80;3.95;;;9.20;99.90;;;;;;5053139;28;20544;-50
2023/01/06 06:25:29;;;;;;;4.72;3.70;;;9.30;99.90;;;;;;5053322;28;20476;-46
2023/01/06 06:28:15;;;;;;;6.60;4.00;;;9.30;99.90;;;;;;5053413;28;20107;-46
2023/01/06 06:31:07;;;;;;;9.38;4.43;;;9.40;99.90;;;;;;5052980;28;20029;-47
2023/01/06 06:33:56;;;;;;;6.60;4.05;;;9.40;99.90;;;;;;5053007;28;20108;-47
2023/01/06 06:36:42;;;;;;;7.25;3.70;;;9.40;99.90;;;;;;5052738;28;20033;-49
2023/01/06 06:39:28;;;;;;;5.25;4.00;;;9.40;99.90;;;;;;5053096;28;20025;-51
2023/01/06 06:42:14;;;;;;;8.13;4.07;;;9.40;99.90;;;;;;5052480;28;20033;-47
2023/01/06 06:45:00;;;;;;;6.38;3.88;;;9.40;99.90;;;;;;5053162;28;20033;-58
2023/01/06 06:47:46;;;;;;;6.55;4.30;;;9.40;99.90;;;;;;5052310;28;20033;-54
2023/01/06 06:50:31;;;;;;;6.82;4.88;;;9.50;99.90;;;;;;5052445;28;20500;-53
2023/01/06 06:53:17;;;;;;;6.85;4.53;;;9.50;99.90;;;;;;5052277;28;20559;-56
2023/01/06 06:56:05;;;;;;;5.90;3.78;;;9.50;99.90;;;;;;5052218;28;20510;-58
2023/01/06 06:58:51;;;;;;;6.18;4.25;;;9.50;99.90;;;;;;5051211;28;20044;-59
2023/01/06 07:01:37;;;;;;;5.93;4.65;;;9.50;99.90;;;;;;5052186;28;20032;-54
2023/01/06 07:04:23;;;;;;;6.70;4.38;;;9.50;99.90;;;;;;5053437;28;20563;-55
2023/01/06 07:07:09;;;;;;;12.82;8.88;;;9.40;99.90;;;;;;5052801;28;20405;-58
2023/01/06 07:09:54;;;;;;;7.65;5.53;;;9.40;99.90;;;;;;5052043;28;20025;-57
2023/01/06 07:12:40;;;;;;;10.48;7.47;;;9.50;99.90;;;;;;5051757;28;20101;-54
2023/01/06 07:15:26;;;;;;;6.22;5.03;;;9.50;99.90;;;;;;5051580;28;20111;-54
2023/01/06 07:18:12;;;;;;;5.22;4.00;;;9.60;99.90;;;;;;5051231;28;20035;-52
2023/01/06 07:20:58;;;;;;;4.65;3.78;;;9.60;99.90;;;;;;5052558;28;20032;-53
2023/01/06 07:23:44;;;;;;;9.15;4.40;;;9.60;99.90;;;;;;5052617;28;20029;-54
2023/01/06 07:29:03;;;;;;;5.78;4.10;;;9.70;99.90;;;;;;5012068;28;20506;-48
2023/01/06 07:31:49;;;;;;;7.10;5.10;;;9.70;99.90;;;;;;5016688;28;20013;-51
2023/01/06 07:34:35;;;;;;;9.10;7.10;;;9.70;99.90;;;;;;5013553;28;20104;-46
2023/01/06 07:37:21;;;;;;;8.13;5.15;;;9.70;99.90;;;;;;5013011;28;20116;-49
2023/01/06 07:40:08;;;;;;;8.77;4.85;;;9.80;99.90;;;;;;5012366;28;20402;-46
2023/01/06 07:42:54;;;;;;;29.25;23.33;;;9.80;99.90;;;;;;5013698;28;20095;-45
2023/01/06 07:45:40;;;;;;;12.63;10.32;;;9.90;99.90;;;;;;5013270;28;20030;-50
2023/01/06 07:48:26;;;;;;;13.15;10.52;;;9.90;99.90;;;;;;5013200;28;20045;-48
2023/01/06 07:51:12;;;;;;;11.50;7.82;;;10.00;99.90;;;;;;4998905;28;20461;-49
2023/01/06 07:53:58;;;;;;;10.35;7.13;;;10.00;99.90;;;;;;5014081;28;20479;-46
2023/01/06 07:56:44;;;;;;;9.55;6.10;;;10.00;99.90;;;;;;5012462;28;20033;-49
2023/01/06 07:59:29;;;;;;;7.43;5.65;;;10.00;99.90;;;;;;5013668;28;20025;-51
2023/01/06 08:02:15;;;;;;;8.45;6.35;;;10.00;99.90;;;;;;5012944;28;20454;-54
2023/01/06 08:05:01;;;;;;;7.13;5.97;;;10.00;99.90;;;;;;5012681;28;20474;-45
2023/01/06 08:07:47;;;;;;;7.88;6.10;;;9.90;99.90;;;;;;5013439;28;20022;-47
2023/01/06 08:10:33;;;;;;;9.43;6.10;;;9.90;99.90;;;;;;4998389;28;20029;-47
2023/01/06 08:13:19;;;;;;;7.60;5.15;;;9.90;99.90;;;;;;5012497;28;20037;-49
2023/01/06 08:16:07;;;;;;;17.77;12.40;;;9.90;99.90;;;;;;5013809;28;20065;-46
2023/01/06 08:18:53;;;;;;;19.75;15.05;;;9.90;99.90;;;;;;5012505;28;20053;-46
2023/01/06 08:21:39;;;;;;;6.20;5.30;;;10.00;99.90;;;;;;5011915;28;20135;-48
2023/01/06 08:24:24;;;;;;;8.00;4.68;;;10.00;99.90;;;;;;5000327;28;20033;-51
2023/01/06 08:27:10;;;;;;;5.68;4.40;;;9.90;99.90;;;;;;5011536;28;20512;-53
2023/01/06 08:29:56;;;;;;;5.47;4.65;;;9.90;99.90;;;;;;5013988;28;20030;-51
2023/01/06 08:32:42;;;;;;;6.07;4.85;;;9.80;99.90;;;;;;5012708;28;20058;-54
2023/01/06 08:35:28;;;;;;;5.15;4.43;;;9.80;99.90;;;;;;5013430;28;20026;-54
2023/01/06 08:38:14;;;;;;;7.57;6.35;;;9.90;99.90;;;;;;5012861;28;20030;-50
2023/01/06 08:41:01;;;;;;;7.82;6.47;;;9.90;99.90;;;;;;5012556;28;20026;-53
2023/01/06 08:43:47;;;;;;;5.07;4.05;;;9.90;99.90;;;;;;5011266;28;20068;-51
2023/01/06 08:46:33;;;;;;;5.72;4.57;;;9.90;99.90;;;;;;5010729;28;20505;-55
2023/01/06 08:49:19;;;;;;;7.97;4.82;;;10.00;99.90;;;;;;5013263;28;20115;-49
2023/01/06 08:52:05;;;;;;;10.20;7.90;;;10.00;99.90;;;;;;5012964;28;20029;-51
2023/01/06 08:54:51;;;;;;;8.15;6.18;;;10.10;99.90;;;;;;5012284;28;20065;-52
2023/01/06 08:57:37;;;;;;;7.13;6.05;;;10.10;99.90;;;;;;4997911;28;20077;-54
2023/01/06 09:00:23;;;;;;;6.35;5.18;;;10.10;99.90;;;;;;5010818;28;20069;-56
2023/01/06 09:03:09;;;;;;;7.05;4.78;;;10.20;99.90;;;;;;5010099;28;20030;-53
2023/01/06 09:05:57;;;;;;;6.93;5.30;;;10.20;99.90;;;;;;5012525;28;20030;-49
2023/01/06 09:08:42;;;;;;;8.20;4.57;;;10.30;99.90;;;;;;5011487;28;20026;-52
2023/01/06 09:11:28;;;;;;;5.15;4.10;;;10.20;99.90;;;;;;5013068;28;20046;-51
2023/01/06 09:14:14;;;;;;;4.60;3.53;;;10.30;99.90;;;;;;5013239;28;20081;-53
2023/01/06 09:17:00;;;;;;;6.35;5.25;;;10.30;99.90;;;;;;5010731;28;20033;-56
2023/01/06 09:19:46;;;;;;;5.88;4.53;;;10.30;99.90;;;;;;5012442;28;20075;-52
2023/01/06 09:22:32;;;;;;;4.13;3.70;;;10.20;99.90;;;;;;5011969;28;20033;-52
2023/01/06 09:25:20;;;;;;;5.00;4.07;;;10.20;99.90;;;;;;5011626;28;20128;-55
2023/01/06 09:28:06;;;;;;;6.95;4.78;;;10.10;99.90;;;;;;5010687;28;20095;-54
2023/01/06 09:30:52;;;;;;;4.40;3.55;;;10.00;99.90;;;;;;5012962;28;20380;-52
2023/01/06 09:33:38;;;;;;;6.03;3.50;;;9.80;99.90;;;;;;5013171;28;20113;-54
2023/01/06 09:36:24;;;;;;;3.53;2.90;;;9.90;99.90;;;;;;5012850;28;20026;-54
2023/01/06 09:39:10;;;;;;;6.00;3.00;;;9.90;99.90;;;;;;5011878;28;20042;-53
2023/01/06 09:42:13;;;;;;;3.47;2.92;;;9.90;99.90;;;;;;5013070;28;20037;-55
2023/01/06 09:45:23;;;;;;;3.95;3.13;;;9.90;99.90;;;;;;4998757;28;20037;-54
2023/01/06 09:48:16;;;;;;;5.88;3.20;;;10.00;99.90;;;;;;5010123;28;20402;-54
2023/01/06 09:51:05;;;;;;;3.38;2.85;;;9.90;99.90;;;;;;5011029;28;20022;-54
2023/01/06 09:54:24;;;;;;;3.28;2.40;;;10.00;99.90;;;;;;5011608;28;20113;-54
2023/01/06 09:57:20;;;;;;;3.55;2.30;;;10.10;99.90;;;;;;5011107;28;20026;-52
2023/01/06 10:00:26;;;;;;;3.42;2.97;;;10.20;99.90;;;;;;5011738;28;20021;-53
2023/01/06 10:03:22;;;;;;;2.78;2.42;;;10.10;99.90;;;;;;5010685;28;20018;-49
2023/01/06 10:06:38;;;;;;;6.15;2.88;;;10.10;99.90;;;;;;5012701;28;20028;-54
2023/01/06 10:09:27;;;;;;;3.97;2.92;;;10.20;99.90;;;;;;5014966;28;20446;-54
2023/01/06 10:12:16;;;;;;;3.28;2.90;;;10.20;99.90;;;;;;5012063;28;20073;-52
2023/01/06 10:15:20;;;;;;;3.95;2.70;;;10.30;99.90;;;;;;5012958;28;20032;-51
2023/01/06 10:18:36;;;;;;;3.67;2.95;;;10.30;99.90;;;;;;5022248;28;20018;-52
2023/01/06 10:21:35;;;;;;;3.72;2.58;;;10.30;99.90;;;;;;5017921;28;20104;-49
2023/01/06 10:24:44;;;;;;;3.72;2.88;;;10.30;99.90;;;;;;5019298;28;20490;-53
2023/01/06 10:27:40;;;;;;;3.75;3.25;;;10.40;99.90;;;;;;5018853;28;20084;-50
2023/01/06 10:30:46;;;;;;;3.35;2.60;;;10.30;99.90;;;;;;5006358;28;20510;-51
2023/01/06 10:33:37;;;;;;;3.70;2.40;;;10.40;99.90;;;;;;5008385;28;20109;-51
2023/01/06 10:36:43;;;;;;;2.88;2.10;;;10.40;99.90;;;;;;5018968;28;20030;-53
2023/01/06 10:39:32;;;;;;;4.38;2.30;;;10.40;99.90;;;;;;5015142;28;20040;-53
2023/01/06 10:42:55;;;;;;;3.42;2.00;;;10.40;99.90;;;;;;5014179;28;20041;-50
2023/01/06 10:45:46;;;;;;;2.10;1.90;;;10.50;99.90;;;;;;5016156;28;20025;-49
2023/01/06 10:48:33;;;;;;;3.17;1.95;;;10.50;99.90;;;;;;5000074;28;20030;-53
2023/01/06 10:51:40;;;;;;;2.72;2.00;;;10.60;99.90;;;;;;5010507;28;20034;-53
2023/01/06 10:54:28;;;;;;;2.83;2.03;;;10.60;99.90;;;;;;5014799;28;20444;-54
2023/01/06 10:57:22;;;;;;;2.17;1.73;;;10.70;99.90;;;;;;5014404;28;20030;-53
2023/01/06 11:00:17;;;;;;;3.90;2.90;;;10.70;99.90;;;;;;5013424;28;20112;-58
2023/01/06 11:03:11;;;;;;;3.08;2.20;;;10.80;99.90;;;;;;5013032;28;20030;-54
2023/01/06 11:06:00;;;;;;;2.55;1.90;;;10.80;99.90;;;;;;4999538;28;20116;-58
2023/01/06 11:08:46;;;;;;;2.47;1.70;;;10.80;99.90;;;;;;5012453;28;20022;-53
2023/01/06 11:11:32;;;;;;;2.13;1.73;;;10.90;99.90;;;;;;5013965;28;20076;-47
2023/01/06 11:14:23;;;;;;;2.40;1.83;;;10.90;99.90;;;;;;4999331;28;20156;-46
2023/01/06 11:17:14;;;;;;;2.58;2.38;;;11.00;99.90;;;;;;5013298;28;20099;-58
2023/01/06 11:20:12;;;;;;;2.05;1.77;;;10.90;99.90;;;;;;5015501;28;20112;-50
2023/01/06 11:23:21;;;;;;;1.90;1.58;;;10.90;99.90;;;;;;5013888;28;20125;-47
2023/01/06 11:26:19;;;;;;;2.35;2.13;;;10.90;99.90;;;;;;5013996;28;20033;-49
2023/01/06 11:29:18;;;;;;;3.08;2.08;;;11.00;99.90;;;;;;5014704;28;20498;-49
2023/01/06 11:32:21;;;;;;;3.78;2.08;;;11.00;99.90;;;;;;4999946;28;20029;-49
2023/01/06 11:35:20;;;;;;;3.35;1.88;;;11.00;99.90;;;;;;5012023;28;20022;-55
2023/01/06 11:38:16;;;;;;;3.22;1.92;;;11.10;99.90;;;;;;5013011;28;20060;-51
2023/01/06 11:41:08;;;;;;;3.72;2.03;;;11.10;99.90;;;;;;5014141;28;20498;-55
2023/01/06 11:44:00;;;;;;;2.95;1.52;;;11.10;99.90;;;;;;5013972;28;20041;-52
2023/01/06 11:46:49;;;;;;;3.08;1.75;;;11.10;99.90;;;;;;5014136;28;20628;-52
2023/01/06 11:49:45;;;;;;;3.83;1.90;;;11.10;99.90;;;;;;5014247;28;20032;-53
2023/01/06 11:52:31;;;;;;;2.78;2.00;;;11.10;99.90;;;;;;5013279;28;20379;-52
2023/01/06 11:55:21;;;;;;;2.20;1.70;;;11.20;99.90;;;;;;5012822;28;20498;-49
2023/01/06 11:58:22;;;;;;;1.80;1.50;;;11.30;99.90;;;;;;5013764;28;20037;-49
2023/01/06 12:01:15;;;;;;;1.80;1.70;;;11.30;99.90;;;;;;5013752;28;20033;-53
2023/01/06 12:04:24;;;;;;;2.63;1.90;;;11.40;99.90;;;;;;5013888;28;20029;-52
2023/01/06 12:07:24;;;;;;;2.70;1.70;;;11.40;99.90;;;;;;5014025;28;20073;-56
2023/01/06 12:10:23;;;;;;;2.08;1.52;;;11.40;99.90;;;;;;5013750;28;20025;-52
2023/01/06 12:13:13;;;;;;;2.17;1.67;;;11.40;99.90;;;;;;5013153;28;20048;-49
2023/01/06 12:16:05;;;;;;;2.42;1.98;;;11.50;99.90;;;;;;5013310;28;20040;-56
2023/01/06 12:18:51;;;;;;;1.60;1.40;;;11.60;99.90;;;;;;5011748;28;20068;-51
2023/01/06 12:21:39;;;;;;;2.53;2.00;;;11.60;99.90;;;;;;5011775;28;20030;-50
2023/01/06 12:24:25;;;;;;;2.38;2.10;;;11.50;99.90;;;;;;5013468;28;20124;-54
2023/01/06 12:27:20;;;;;;;2.97;1.98;;;11.50;99.90;;;;;;5011972;28;20041;-49
2023/01/06 12:30:38;;;;;;;3.45;1.80;;;11.50;99.90;;;;;;5013137;28;20036;-49
2023/01/06 12:33:41;;;;;;;2.50;1.60;;;11.50;99.90;;;;;;5012849;28;20105;-50
2023/01/06 12:36:36;;;;;;;2.80;2.08;;;11.50;99.90;;;;;;5013724;28;20029;-51
2023/01/06 12:39:32;;;;;;;3.00;1.70;;;11.50;99.90;;;;;;5012470;28;20033;-50
2023/01/06 12:42:50;;;;;;;1.90;1.75;;;11.60;99.90;;;;;;4998439;28;20029;-53
2023/01/06 12:46:03;;;;;;;2.35;2.00;;;11.50;99.90;;;;;;5012360;28;20018;-54
2023/01/06 12:49:28;;;;;;;3.65;1.73;;;11.50;99.90;;;;;;5012927;28;20375;-56
2023/01/06 12:52:39;;;;;;;3.22;2.33;;;11.50;99.90;;;;;;5010138;28;20062;-50
2023/01/06 12:55:58;;;;;;;3.55;1.88;;;11.50;99.90;;;;;;5012482;28;20061;-48
2023/01/06 12:58:44;;;;;;;3.17;1.85;;;11.50;99.90;;;;;;5011977;28;20490;-49
2023/01/06 13:01:56;;;;;;;3.58;1.77;;;11.60;99.90;;;;;;5012614;28;20030;-48
2023/01/06 13:05:02;;;;;;;1.55;1.45;;;11.50;99.90;;;;;;5010872;28;20063;-55
2023/01/06 13:07:57;;;;;;;2.90;2.00;;;11.50;99.90;;;;;;5011794;28;20022;-57
2023/01/06 13:11:07;;;;;;;3.40;2.03;;;11.50;99.90;;;;;;5011799;28;20022;-55
2023/01/06 13:14:06;;;;;;;2.15;1.80;;;11.50;99.90;;;;;;4976970;28;20034;-50
2023/01/06 13:16:58;;;;;;;3.10;2.05;;;11.50;99.90;;;;;;5012645;28;20113;-52
2023/01/06 13:19:54;;;;;;;4.05;2.10;;;11.50;99.90;;;;;;5011995;28;20104;-48
2023/01/06 13:22:52;;;;;;;4.95;1.90;;;11.50;99.90;;;;;;4998624;28;20038;-50
2023/01/06 13:25:49;;;;;;;2.47;1.90;;;11.40;99.90;;;;;;5012208;28;20026;-54
2023/01/06 13:28:51;;;;;;;3.10;2.15;;;11.60;99.90;;;;;;5011894;28;20112;-51
2023/01/06 13:32:16;;;;;;;2.47;2.08;;;11.60;99.90;;;;;;5012432;28;20375;-52
2023/01/06 13:35:33;;;;;;;2.97;2.03;;;11.60;99.90;;;;;;5011718;28;20294;-52
2023/01/06 13:38:44;;;;;;;2.72;2.20;;;11.60;99.90;;;;;;5012585;28;20034;-49
2023/01/06 13:41:33;;;;;;;2.50;2.05;;;11.70;99.90;;;;;;5011198;28;20092;-50
2023/01/06 13:44:25;;;;;;;2.58;2.00;;;11.70;99.90;;;;;;5011423;28;20037;-52
2023/01/06 13:47:16;;;;;;;2.83;1.90;;;11.60;99.90;;;;;;4995942;28;20034;-50
2023/01/06 13:50:04;;;;;;;2.88;2.10;;;11.60;99.90;;;;;;5012279;28;20032;-53
2023/01/06 13:52:50;;;;;;;4.35;2.20;;;11.40;99.90;;;;;;5016259;28;20034;-50
2023/01/06 13:55:37;;;;;;;2.88;2.25;;;11.30;99.90;;;;;;5015336;28;20550;-49
2023/01/06 13:58:24;;;;;;;2.22;2.03;;;11.40;99.90;;;;;;5014919;28;20038;-53
2023/01/06 14:01:29;;;;;;;5.05;3.10;;;11.50;99.90;;;;;;5001615;28;20026;-49
2023/01/06 14:04:40;;;;;;;3.88;2.00;;;11.50;99.90;;;;;;5015405;28;20398;-54
2023/01/06 14:07:38;;;;;;;3.45;2.00;;;11.50;99.90;;;;;;5014942;28;20041;-52
2023/01/06 14:10:29;;;;;;;3.10;1.90;;;11.60;99.90;;;;;;5014077;28;20502;-49
2023/01/06 14:13:23;;;;;;;2.40;1.80;;;11.60;99.90;;;;;;5014885;28;20491;-51
2023/01/06 14:16:12;;;;;;;1.98;1.77;;;11.60;99.90;;;;;;5015629;28;20149;-50
2023/01/06 14:19:08;;;;;;;1.85;1.75;;;11.60;99.90;;;;;;5014534;28;20033;-52
2023/01/06 14:22:11;;;;;;;3.53;1.75;;;11.50;99.90;;;;;;5014716;28;20473;-49
2023/01/06 14:25:02;;;;;;;2.22;1.90;;;11.50;99.90;;;;;;5013440;28;20379;-52
2023/01/06 14:27:47;;;;;;;2.20;1.70;;;11.50;99.90;;;;;;5014317;28;20516;-54
2023/01/06 14:30:35;;;;;;;2.45;1.90;;;11.60;99.90;;;;;;5014474;28;20022;-50
2023/01/06 14:33:36;;;;;;;3.05;2.28;;;11.50;99.90;;;;;;5014622;28;20084;-54
2023/01/06 14:36:24;;;;;;;2.90;1.73;;;11.50;99.90;;;;;;5014185;28;20044;-51
2023/01/06 14:39:20;;;;;;;2.38;1.75;;;11.50;99.90;;;;;;5014494;28;20029;-49
2023/01/06 14:42:27;;;;;;;2.10;1.90;;;11.50;99.90;;;;;;5000197;28;20029;-50
2023/01/06 14:45:22;;;;;;;3.70;2.25;;;11.40;99.90;;;;;;5013261;28;20034;-54
2023/01/06 14:48:13;;;;;;;2.92;1.70;;;11.30;99.90;;;;;;4999774;28;20026;-53
2023/01/06 14:50:59;;;;;;;3.70;2.28;;;11.10;99.90;;;;;;5013606;28;20057;-49
2023/01/06 14:53:52;;;;;;;2.88;2.15;;;11.00;99.90;;;;;;5013766;28;20021;-50
2023/01/06 14:56:38;;;;;;;2.10;1.90;;;10.90;99.90;;;;;;4998385;28;20026;-50
2023/01/06 14:59:24;;;;;;;4.88;2.60;;;10.80;99.90;;;;;;5013417;28;20052;-51
2023/01/06 15:02:15;;;;;;;3.63;2.08;;;10.80;99.90;;;;;;5012053;28;20034;-51
2023/01/06 15:05:01;;;;;;;3.47;2.20;;;10.70;99.90;;;;;;5014609;28;20026;-49
2023/01/06 15:07:58;;;;;;;2.97;2.25;;;10.80;99.90;;;;;;5013580;28;20034;-50